createdAt,value
2015-11-14T00:00:11.115Z,-1.86
2015-11-14T00:00:23.505Z,-2.05
2015-11-14T00:00:35.880Z,-1.99
2015-11-14T00:00:48.243Z,-1.99
2015-11-14T00:01:00.618Z,-2.05
2015-11-14T00:01:12.977Z,-2.02
2015-11-14T00:01:25.430Z,-1.96
2015-11-14T00:01:37.805Z,-2.03
2015-11-14T00:01:50.183Z,-2.05
2015-11-14T00:02:02.558Z,-1.94
2015-11-14T00:02:14.949Z,-2
2015-11-14T00:02:27.339Z,-2.02
2015-11-14T00:02:39.714Z,-1.99
2015-11-14T00:02:52.076Z,-2.05
2015-11-14T00:03:04.435Z,-1.97
2015-11-14T00:03:16.795Z,-2.03
2015-11-14T00:03:29.154Z,-2.03
2015-11-14T00:03:41.545Z,-1.97
2015-11-14T00:03:53.907Z,-2.02
2015-11-14T00:04:06.266Z,-2.03
2015-11-14T00:04:18.626Z,-2.02
2015-11-14T00:04:30.985Z,-2
2015-11-14T00:04:43.376Z,-1.91
2015-11-14T00:04:55.754Z,-1.91
2015-11-14T00:05:08.113Z,-1.92
2015-11-14T00:05:20.488Z,-1.99
2015-11-14T00:05:32.160Z,-2
2015-11-14T00:05:44.551Z,-1.88
2015-11-14T00:05:56.944Z,-1.92
2015-11-14T00:06:09.335Z,-1.88
2015-11-14T00:06:21.725Z,-1.97
2015-11-14T00:06:33.413Z,-1.89
2015-11-14T00:06:45.804Z,-1.94
2015-11-14T00:06:58.197Z,-1.89
2015-11-14T00:07:10.557Z,-1.96
2015-11-14T00:07:22.916Z,-1.91
2015-11-14T00:07:35.275Z,-1.91
2015-11-14T00:07:46.932Z,-1.88
2015-11-14T00:07:59.293Z,-1.96
2015-11-14T00:08:11.668Z,-1.96
2015-11-14T00:08:24.027Z,-1.88
2015-11-14T00:08:36.387Z,-1.97
2015-11-14T00:08:48.746Z,-1.91
2015-11-14T00:09:01.124Z,-1.86
2015-11-14T00:09:13.483Z,-1.89
2015-11-14T00:09:25.702Z,-1.97
2015-11-14T00:09:38.046Z,-1.88
2015-11-14T00:09:50.421Z,-1.92
2015-11-14T00:10:02.096Z,-1.88
2015-11-14T00:10:14.455Z,-1.91
2015-11-14T00:10:26.830Z,-1.92
2015-11-14T00:10:39.205Z,-1.85
2015-11-14T00:10:51.596Z,-1.88
2015-11-14T00:11:04.005Z,-1.91
2015-11-14T00:11:16.396Z,-1.88
2015-11-14T00:11:28.786Z,-1.86
2015-11-14T00:11:41.208Z,-1.86
2015-11-14T00:11:53.583Z,-1.88
2015-11-14T00:12:05.976Z,-1.85
2015-11-14T00:12:18.366Z,-1.85
2015-11-14T00:12:30.741Z,-1.86
2015-11-14T00:12:43.085Z,-1.89
2015-11-14T00:12:55.460Z,-1.81
2015-11-14T00:13:07.806Z,-1.92
2015-11-14T00:13:20.181Z,-1.79
2015-11-14T00:13:32.556Z,-1.88
2015-11-14T00:13:44.915Z,-1.84
2015-11-14T00:13:57.279Z,-1.85
2015-11-14T00:14:09.654Z,-1.86
2015-11-14T00:14:22.060Z,-1.82
2015-11-14T00:14:34.435Z,-1.85
2015-11-14T00:14:46.810Z,-1.85
2015-11-14T00:14:59.031Z,-1.92
2015-11-14T00:15:11.421Z,-1.86
2015-11-14T00:15:23.812Z,-1.85
2015-11-14T00:15:36.218Z,-1.84
2015-11-14T00:15:48.593Z,-1.92
2015-11-14T00:16:00.987Z,-1.88
2015-11-14T00:16:13.393Z,-1.89
2015-11-14T00:16:25.784Z,-1.84
2015-11-14T00:16:38.190Z,-1.85
2015-11-14T00:16:50.549Z,-1.91
2015-11-14T00:17:02.911Z,-1.91
2015-11-14T00:17:15.270Z,-1.96
2015-11-14T00:17:27.629Z,-1.92
2015-11-14T00:17:39.989Z,-1.94
2015-11-14T00:17:52.364Z,-1.92
2015-11-14T00:18:04.726Z,-1.99
2015-11-14T00:18:17.086Z,-1.92
2015-11-14T00:18:29.445Z,-1.91
2015-11-14T00:18:41.820Z,-1.94
2015-11-14T00:18:54.179Z,-1.94
2015-11-14T00:19:06.542Z,-1.97
2015-11-14T00:19:18.901Z,-1.92
2015-11-14T00:19:31.260Z,-1.96
2015-11-14T00:19:43.651Z,-1.89
2015-11-14T00:19:56.026Z,-2.02
2015-11-14T00:20:08.404Z,-2.05
2015-11-14T00:20:20.779Z,-1.89
2015-11-14T00:20:33.170Z,-2
2015-11-14T00:20:45.560Z,-2.03
2015-11-14T00:20:57.967Z,-2.02
2015-11-14T00:21:10.359Z,-1.99
2015-11-14T00:21:22.765Z,-2.05
2015-11-14T00:21:35.156Z,-2.03
2015-11-14T00:21:47.547Z,-2.03
2015-11-14T00:21:59.937Z,-2.03
2015-11-14T00:22:12.331Z,-2.1
2015-11-14T00:22:24.690Z,-2.03
2015-11-14T00:22:37.050Z,-2.06
2015-11-14T00:22:49.425Z,-2.09
2015-11-14T00:23:01.768Z,-2.06
2015-11-14T00:23:14.146Z,-2.12
2015-11-14T00:23:26.506Z,-2.06
2015-11-14T00:23:38.865Z,-2.12
2015-11-14T00:23:51.225Z,-2.09
2015-11-14T00:24:03.600Z,-2.15
2015-11-14T00:24:15.962Z,-2.12
2015-11-14T00:24:28.321Z,-2.1
2015-11-14T00:24:40.681Z,-2.23
2015-11-14T00:24:53.040Z,-2.14
2015-11-14T00:25:05.415Z,-2.21
2015-11-14T00:25:17.793Z,-2.1
2015-11-14T00:25:30.168Z,-2.12
2015-11-14T00:25:42.543Z,-2.18
2015-11-14T00:25:54.918Z,-2.15
2015-11-14T00:26:07.324Z,-2.23
2015-11-14T00:26:19.718Z,-2.34
2015-11-14T00:26:32.124Z,-2.24
2015-11-14T00:26:44.515Z,-2.3
2015-11-14T00:26:56.921Z,-2.32
2015-11-14T00:27:09.359Z,-2.25
2015-11-14T00:27:21.798Z,-2.25
2015-11-14T00:27:34.204Z,-2.3
2015-11-14T00:27:46.579Z,-2.27
2015-11-14T00:27:58.923Z,-2.39
2015-11-14T00:28:11.282Z,-2.43
2015-11-14T00:28:23.645Z,-2.39
2015-11-14T00:28:36.004Z,-2.37
2015-11-14T00:28:48.364Z,-2.49
2015-11-14T00:29:00.707Z,-2.47
2015-11-14T00:29:13.067Z,-2.47
2015-11-14T00:29:25.429Z,-2.44
2015-11-14T00:29:37.804Z,-2.44
2015-11-14T00:29:50.163Z,-2.42
2015-11-14T00:30:02.523Z,-2.42
2015-11-14T00:30:14.867Z,-2.47
2015-11-14T00:30:27.245Z,-2.53
2015-11-14T00:30:39.635Z,-2.47
2015-11-14T00:30:52.010Z,-2.53
2015-11-14T00:31:04.229Z,-2.49
2015-11-14T00:31:16.604Z,-2.47
2015-11-14T00:31:29.012Z,-2.47
2015-11-14T00:31:41.403Z,-2.54
2015-11-14T00:31:53.793Z,-2.46
2015-11-14T00:32:06.184Z,-2.46
2015-11-14T00:32:18.575Z,-2.55
2015-11-14T00:32:30.265Z,-2.44
2015-11-14T00:32:42.656Z,-2.53
2015-11-14T00:32:55.062Z,-2.47
2015-11-14T00:33:07.421Z,-2.46
2015-11-14T00:33:19.796Z,-2.54
2015-11-14T00:33:32.143Z,-2.55
2015-11-14T00:33:44.518Z,-2.61
2015-11-14T00:33:56.878Z,-2.64
2015-11-14T00:34:09.237Z,-2.62
2015-11-14T00:34:21.612Z,-2.57
2015-11-14T00:34:33.973Z,-2.47
2015-11-14T00:34:46.333Z,-2.64
2015-11-14T00:34:58.723Z,-2.55
2015-11-14T00:35:11.114Z,-2.58
2015-11-14T00:35:23.473Z,-2.58
2015-11-14T00:35:35.851Z,-2.62
2015-11-14T00:35:48.226Z,-2.53
2015-11-14T00:36:00.633Z,-2.58
2015-11-14T00:36:13.023Z,-2.58
2015-11-14T00:36:25.414Z,-2.61
2015-11-14T00:36:37.823Z,-2.57
2015-11-14T00:36:50.229Z,-2.61
2015-11-14T00:37:02.620Z,-2.57
2015-11-14T00:37:15.011Z,-2.58
2015-11-14T00:37:27.370Z,-2.58
2015-11-14T00:37:39.732Z,-2.58
2015-11-14T00:37:51.389Z,-2.49
2015-11-14T00:38:03.732Z,-2.61
2015-11-14T00:38:16.092Z,-2.49
2015-11-14T00:38:28.482Z,-2.6
2015-11-14T00:38:40.859Z,-2.55
2015-11-14T00:38:53.219Z,-2.54
2015-11-14T00:39:05.562Z,-2.61
2015-11-14T00:39:17.937Z,-2.6
2015-11-14T00:39:29.578Z,-2.61
2015-11-14T00:39:41.940Z,-2.6
2015-11-14T00:39:54.284Z,-2.57
2015-11-14T00:40:06.675Z,-2.6
2015-11-14T00:40:19.050Z,-2.5
2015-11-14T00:40:31.440Z,-2.55
2015-11-14T00:40:43.803Z,-2.55
2015-11-14T00:40:56.178Z,-2.62
2015-11-14T00:41:07.850Z,-2.55
2015-11-14T00:41:20.240Z,-2.55
2015-11-14T00:41:31.912Z,-2.58
2015-11-14T00:41:44.306Z,-2.49
2015-11-14T00:41:56.696Z,-2.47
2015-11-14T00:42:09.087Z,-2.55
2015-11-14T00:42:21.478Z,-2.54
2015-11-14T00:42:33.884Z,-2.54
2015-11-14T00:42:46.246Z,-2.54
2015-11-14T00:42:58.621Z,-2.39
2015-11-14T00:43:10.965Z,-2.54
2015-11-14T00:43:22.637Z,-2.54
2015-11-14T00:43:34.996Z,-2.55
2015-11-14T00:43:47.374Z,-2.54
2015-11-14T00:43:59.734Z,-2.5
2015-11-14T00:44:12.093Z,-2.53
2015-11-14T00:44:24.468Z,-2.5
2015-11-14T00:44:36.827Z,-2.54
2015-11-14T00:44:49.205Z,-2.5
2015-11-14T00:45:01.565Z,-2.57
2015-11-14T00:45:13.924Z,-2.43
2015-11-14T00:45:26.284Z,-2.54
2015-11-14T00:45:38.659Z,-2.49
2015-11-14T00:45:51.036Z,-2.49
2015-11-14T00:46:03.395Z,-2.49
2015-11-14T00:46:15.770Z,-2.6
2015-11-14T00:46:28.161Z,-2.42
2015-11-14T00:46:40.551Z,-2.6
2015-11-14T00:46:52.945Z,-2.43
2015-11-14T00:47:05.351Z,-2.46
2015-11-14T00:47:17.742Z,-2.58
2015-11-14T00:47:30.148Z,-2.6
2015-11-14T00:47:42.570Z,-2.58
2015-11-14T00:47:54.932Z,-2.64
2015-11-14T00:48:07.307Z,-2.65
2015-11-14T00:48:19.651Z,-2.65
2015-11-14T00:48:32.010Z,-2.61
2015-11-14T00:48:44.370Z,-2.61
2015-11-14T00:48:56.747Z,-2.47
2015-11-14T00:49:09.122Z,-2.5
2015-11-14T00:49:21.481Z,-2.62
2015-11-14T00:49:33.840Z,-2.55
2015-11-14T00:49:46.215Z,-2.44
2015-11-14T00:49:58.578Z,-2.62
2015-11-14T00:50:10.937Z,-2.55
2015-11-14T00:50:23.297Z,-2.55
2015-11-14T00:50:35.672Z,-2.57
2015-11-14T00:50:48.062Z,-2.55
2015-11-14T00:51:00.425Z,-2.53
2015-11-14T00:51:12.800Z,-2.55
2015-11-14T00:51:25.175Z,-2.64
2015-11-14T00:51:37.565Z,-2.57
2015-11-14T00:51:49.956Z,-2.55
2015-11-14T00:52:02.364Z,-2.57
2015-11-14T00:52:14.739Z,-2.61
2015-11-14T00:52:27.130Z,-2.54
2015-11-14T00:52:39.536Z,-2.65
2015-11-14T00:52:51.927Z,-2.55
2015-11-14T00:53:04.336Z,-2.58
2015-11-14T00:53:16.680Z,-2.55
2015-11-14T00:53:29.039Z,-2.61
2015-11-14T00:53:41.414Z,-2.68
2015-11-14T00:53:53.055Z,-2.7
2015-11-14T00:54:05.417Z,-2.57
2015-11-14T00:54:17.776Z,-2.55
2015-11-14T00:54:30.136Z,-2.7
2015-11-14T00:54:42.511Z,-2.65
2015-11-14T00:54:54.873Z,-2.64
2015-11-14T00:55:07.248Z,-2.64
2015-11-14T00:55:19.592Z,-2.62
2015-11-14T00:55:31.951Z,-2.68
2015-11-14T00:55:44.326Z,-2.7
2015-11-14T00:55:56.673Z,-2.62
2015-11-14T00:56:09.048Z,-2.62
2015-11-14T00:56:21.423Z,-2.58
2015-11-14T00:56:33.798Z,-2.7
2015-11-14T00:56:46.173Z,-2.65
2015-11-14T00:56:58.566Z,-2.62
2015-11-14T00:57:10.956Z,-2.61
2015-11-14T00:57:23.347Z,-2.57
2015-11-14T00:57:35.581Z,-2.53
2015-11-14T00:57:47.972Z,-2.67
2015-11-14T00:58:00.364Z,-2.7
2015-11-14T00:58:12.614Z,-2.6
2015-11-14T00:58:24.974Z,-2.54
2015-11-14T00:58:37.333Z,-2.68
2015-11-14T00:58:49.693Z,-2.55
2015-11-14T00:59:02.056Z,-2.65
2015-11-14T00:59:14.415Z,-2.67
2015-11-14T00:59:26.775Z,-2.64
2015-11-14T00:59:39.165Z,-2.57
2015-11-14T00:59:51.525Z,-2.6
2015-11-14T01:00:03.902Z,-2.62
2015-11-14T01:00:16.261Z,-2.57
2015-11-14T01:00:28.620Z,-2.62
2015-11-14T01:00:40.995Z,-2.55
2015-11-14T01:00:53.339Z,-2.5
2015-11-14T01:01:05.702Z,-2.55
2015-11-14T01:01:18.092Z,-2.54
2015-11-14T01:01:30.467Z,-2.67
2015-11-14T01:01:42.842Z,-2.64
2015-11-14T01:01:55.061Z,-2.55
2015-11-14T01:02:07.438Z,-2.58
2015-11-14T01:02:19.797Z,-2.61
2015-11-14T01:02:32.172Z,-2.55
2015-11-14T01:02:44.563Z,-2.53
2015-11-14T01:02:56.954Z,-2.5
2015-11-14T01:03:09.364Z,-2.57
2015-11-14T01:03:21.754Z,-2.65
2015-11-14T01:03:34.161Z,-2.64
2015-11-14T01:03:46.520Z,-2.73
2015-11-14T01:03:58.879Z,-2.65
2015-11-14T01:04:11.241Z,-2.58
2015-11-14T01:04:23.600Z,-2.62
2015-11-14T01:04:35.960Z,-2.54
2015-11-14T01:04:48.335Z,-2.62
2015-11-14T01:05:00.694Z,-2.6
2015-11-14T01:05:13.056Z,-2.67
2015-11-14T01:05:25.416Z,-2.57
2015-11-14T01:05:37.791Z,-2.67
2015-11-14T01:05:50.166Z,-2.64
2015-11-14T01:06:02.525Z,-2.6
2015-11-14T01:06:14.872Z,-2.62
2015-11-14T01:06:27.231Z,-2.57
2015-11-14T01:06:39.622Z,-2.65
2015-11-14T01:06:51.841Z,-2.67
2015-11-14T01:07:04.200Z,-2.65
2015-11-14T01:07:16.578Z,-2.57
2015-11-14T01:07:28.969Z,-2.65
2015-11-14T01:07:41.390Z,-2.62
2015-11-14T01:07:53.781Z,-2.61
2015-11-14T01:08:06.172Z,-2.61
2015-11-14T01:08:18.564Z,-2.62
2015-11-14T01:08:30.986Z,-2.65
2015-11-14T01:08:43.377Z,-2.62
2015-11-14T01:08:55.783Z,-2.62
2015-11-14T01:09:08.142Z,-2.67
2015-11-14T01:09:20.520Z,-2.65
2015-11-14T01:09:32.880Z,-2.61
2015-11-14T01:09:45.239Z,-2.72
2015-11-14T01:09:57.614Z,-2.64
2015-11-14T01:10:09.958Z,-2.6
2015-11-14T01:10:22.320Z,-2.75
2015-11-14T01:10:34.680Z,-2.65
2015-11-14T01:10:47.055Z,-2.72
2015-11-14T01:10:59.414Z,-2.67
2015-11-14T01:11:11.055Z,-2.68
2015-11-14T01:11:23.433Z,-2.73
2015-11-14T01:11:35.792Z,-2.68
2015-11-14T01:11:48.151Z,-2.62
2015-11-14T01:12:00.511Z,-2.73
2015-11-14T01:12:12.886Z,-2.78
2015-11-14T01:12:25.264Z,-2.7
2015-11-14T01:12:37.639Z,-2.7
2015-11-14T01:12:50.029Z,-2.76
2015-11-14T01:13:02.420Z,-2.7
2015-11-14T01:13:14.811Z,-2.68
2015-11-14T01:13:27.188Z,-2.73
2015-11-14T01:13:39.594Z,-2.7
2015-11-14T01:13:51.985Z,-2.68
2015-11-14T01:14:04.375Z,-2.64
2015-11-14T01:14:16.781Z,-2.79
2015-11-14T01:14:29.144Z,-2.68
2015-11-14T01:14:41.503Z,-2.79
2015-11-14T01:14:53.847Z,-2.68
2015-11-14T01:15:06.206Z,-2.75
2015-11-14T01:15:18.581Z,-2.67
2015-11-14T01:15:30.944Z,-2.68
2015-11-14T01:15:43.319Z,-2.79
2015-11-14T01:15:55.678Z,-2.68
2015-11-14T01:16:08.037Z,-2.72
2015-11-14T01:16:20.412Z,-2.67
2015-11-14T01:16:32.775Z,-2.78
2015-11-14T01:16:45.119Z,-2.65
2015-11-14T01:16:57.494Z,-2.73
2015-11-14T01:17:09.853Z,-2.64
2015-11-14T01:17:22.228Z,-2.75
2015-11-14T01:17:34.622Z,-2.79
2015-11-14T01:17:46.992Z,-2.76
2015-11-14T01:17:59.367Z,-2.75
2015-11-14T01:18:11.757Z,-2.78
2015-11-14T01:18:24.132Z,-2.72
2015-11-14T01:18:36.525Z,-2.73
2015-11-14T01:18:48.931Z,-2.81
2015-11-14T01:19:01.322Z,-2.76
2015-11-14T01:19:13.697Z,-2.79
2015-11-14T01:19:26.056Z,-2.79
2015-11-14T01:19:38.403Z,-2.78
2015-11-14T01:19:50.778Z,-2.78
2015-11-14T01:20:03.137Z,-2.75
2015-11-14T01:20:15.497Z,-2.78
2015-11-14T01:20:27.872Z,-2.81
2015-11-14T01:20:40.234Z,-2.81
2015-11-14T01:20:52.593Z,-2.79
2015-11-14T01:21:04.953Z,-2.81
2015-11-14T01:21:17.312Z,-2.79
2015-11-14T01:21:29.672Z,-2.79
2015-11-14T01:21:42.033Z,-2.81
2015-11-14T01:21:54.408Z,-2.81
2015-11-14T01:22:06.783Z,-2.75
2015-11-14T01:22:18.455Z,-2.73
2015-11-14T01:22:30.830Z,-2.76
2015-11-14T01:22:43.208Z,-2.86
2015-11-14T01:22:55.598Z,-2.85
2015-11-14T01:23:07.989Z,-2.83
2015-11-14T01:23:20.223Z,-2.85
2015-11-14T01:23:32.614Z,-2.83
2015-11-14T01:23:45.008Z,-2.81
2015-11-14T01:23:57.414Z,-2.85
2015-11-14T01:24:09.789Z,-2.86
2015-11-14T01:24:22.211Z,-2.88
2015-11-14T01:24:34.570Z,-2.83
2015-11-14T01:24:46.933Z,-2.73
2015-11-14T01:24:59.292Z,-2.88
2015-11-14T01:25:11.651Z,-2.86
2015-11-14T01:25:24.042Z,-2.81
2015-11-14T01:25:36.401Z,-2.86
2015-11-14T01:25:48.763Z,-2.83
2015-11-14T01:26:01.122Z,-2.88
2015-11-14T01:26:13.481Z,-2.88
2015-11-14T01:26:25.856Z,-2.93
2015-11-14T01:26:38.231Z,-2.88
2015-11-14T01:26:50.594Z,-2.83
2015-11-14T01:27:02.953Z,-2.85
2015-11-14T01:27:15.313Z,-2.81
2015-11-14T01:27:27.688Z,-2.9
2015-11-14T01:27:40.078Z,-2.85
2015-11-14T01:27:52.455Z,-2.83
2015-11-14T01:28:04.830Z,-2.85
2015-11-14T01:28:17.205Z,-2.86
2015-11-14T01:28:29.611Z,-2.83
2015-11-14T01:28:42.002Z,-2.83
2015-11-14T01:28:54.397Z,-2.9
2015-11-14T01:29:06.787Z,-2.88
2015-11-14T01:29:19.194Z,-2.82
2015-11-14T01:29:31.584Z,-2.85
2015-11-14T01:29:43.990Z,-2.83
2015-11-14T01:29:56.353Z,-2.85
2015-11-14T01:30:08.712Z,-2.79
2015-11-14T01:30:21.072Z,-2.85
2015-11-14T01:30:33.431Z,-2.86
2015-11-14T01:30:45.806Z,-2.85
2015-11-14T01:30:58.167Z,-2.86
2015-11-14T01:31:10.527Z,-2.82
2015-11-14T01:31:22.886Z,-2.91
2015-11-14T01:31:35.245Z,-2.78
2015-11-14T01:31:46.917Z,-2.83
2015-11-14T01:31:59.122Z,-2.75
2015-11-14T01:32:11.482Z,-2.73
2015-11-14T01:32:23.841Z,-2.86
2015-11-14T01:32:36.201Z,-2.86
2015-11-14T01:32:48.591Z,-2.78
2015-11-14T01:33:00.969Z,-2.88
2015-11-14T01:33:13.360Z,-2.82
2015-11-14T01:33:25.735Z,-2.82
2015-11-14T01:33:38.125Z,-2.82
2015-11-14T01:33:50.516Z,-2.9
2015-11-14T01:34:02.911Z,-2.79
2015-11-14T01:34:15.301Z,-2.81
2015-11-14T01:34:27.708Z,-2.79
2015-11-14T01:34:40.098Z,-2.79
2015-11-14T01:34:52.551Z,-2.9
2015-11-14T01:35:04.913Z,-2.86
2015-11-14T01:35:17.272Z,-2.85
2015-11-14T01:35:29.631Z,-2.79
2015-11-14T01:35:41.991Z,-2.83
2015-11-14T01:35:54.350Z,-2.82
2015-11-14T01:36:06.713Z,-2.86
2015-11-14T01:36:19.072Z,-2.85
2015-11-14T01:36:31.431Z,-2.75
2015-11-14T01:36:43.775Z,-2.86
2015-11-14T01:36:56.150Z,-2.82
2015-11-14T01:37:08.511Z,-2.78
2015-11-14T01:37:20.855Z,-2.82
2015-11-14T01:37:33.199Z,-2.82
2015-11-14T01:37:45.543Z,-2.79
2015-11-14T01:37:57.918Z,-2.73
2015-11-14T01:38:10.296Z,-2.82
2015-11-14T01:38:22.671Z,-2.78
2015-11-14T01:38:35.046Z,-2.79
2015-11-14T01:38:47.436Z,-2.75
2015-11-14T01:38:59.827Z,-2.82
2015-11-14T01:39:12.221Z,-2.86
2015-11-14T01:39:24.627Z,-2.88
2015-11-14T01:39:36.299Z,-2.76
2015-11-14T01:39:48.721Z,-2.78
2015-11-14T01:40:01.142Z,-2.81
2015-11-14T01:40:13.504Z,-2.9
2015-11-14T01:40:25.848Z,-2.82
2015-11-14T01:40:38.207Z,-2.86
2015-11-14T01:40:50.566Z,-2.83
2015-11-14T01:41:02.926Z,-2.9
2015-11-14T01:41:15.305Z,-2.78
2015-11-14T01:41:27.664Z,-2.9
2015-11-14T01:41:40.039Z,-2.85
2015-11-14T01:41:52.398Z,-2.85
2015-11-14T01:42:04.773Z,-2.82
2015-11-14T01:42:17.136Z,-2.86
2015-11-14T01:42:29.495Z,-2.86
2015-11-14T01:42:41.855Z,-2.86
2015-11-14T01:42:54.230Z,-2.86
2015-11-14T01:43:06.605Z,-2.91
2015-11-14T01:43:18.982Z,-2.75
2015-11-14T01:43:31.357Z,-2.88
2015-11-14T01:43:43.732Z,-2.85
2015-11-14T01:43:56.122Z,-2.83
2015-11-14T01:44:08.513Z,-2.82
2015-11-14T01:44:20.906Z,-2.86
2015-11-14T01:44:33.313Z,-2.86
2015-11-14T01:44:45.688Z,-2.85
2015-11-14T01:44:58.110Z,-2.82
2015-11-14T01:45:10.485Z,-2.9
2015-11-14T01:45:22.894Z,-2.83
2015-11-14T01:45:35.269Z,-2.79
2015-11-14T01:45:47.628Z,-2.76
2015-11-14T01:46:00.003Z,-2.86
2015-11-14T01:46:12.363Z,-2.78
2015-11-14T01:46:24.725Z,-2.78
2015-11-14T01:46:36.928Z,-2.79
2015-11-14T01:46:49.287Z,-2.79
2015-11-14T01:47:01.647Z,-2.86
2015-11-14T01:47:14.006Z,-2.78
2015-11-14T01:47:26.368Z,-2.81
2015-11-14T01:47:38.743Z,-2.75
2015-11-14T01:47:51.102Z,-2.83
2015-11-14T01:48:03.477Z,-2.79
2015-11-14T01:48:15.836Z,-2.83
2015-11-14T01:48:28.214Z,-2.79
2015-11-14T01:48:40.589Z,-2.83
2015-11-14T01:48:52.964Z,-2.83
2015-11-14T01:49:05.339Z,-2.76
2015-11-14T01:49:17.714Z,-2.78
2015-11-14T01:49:30.124Z,-2.81
2015-11-14T01:49:42.514Z,-2.81
2015-11-14T01:49:54.905Z,-2.78
2015-11-14T01:50:07.280Z,-2.73
2015-11-14T01:50:19.686Z,-2.79
2015-11-14T01:50:32.095Z,-2.75
2015-11-14T01:50:44.455Z,-2.79
2015-11-14T01:50:56.830Z,-2.76
2015-11-14T01:51:09.017Z,-2.73
2015-11-14T01:51:21.392Z,-2.76
2015-11-14T01:51:33.754Z,-2.73
2015-11-14T01:51:46.129Z,-2.75
2015-11-14T01:51:58.488Z,-2.75
2015-11-14T01:52:10.847Z,-2.75
2015-11-14T01:52:23.207Z,-2.76
2015-11-14T01:52:35.585Z,-2.76
2015-11-14T01:52:47.944Z,-2.76
2015-11-14T01:53:00.303Z,-2.79
2015-11-14T01:53:11.944Z,-2.76
2015-11-14T01:53:24.303Z,-2.79
2015-11-14T01:53:36.681Z,-2.79
2015-11-14T01:53:49.056Z,-2.79
2015-11-14T01:54:01.431Z,-2.82
2015-11-14T01:54:13.806Z,-2.81
2015-11-14T01:54:26.197Z,-2.82
2015-11-14T01:54:37.888Z,-2.82
2015-11-14T01:54:50.278Z,-2.82
2015-11-14T01:55:02.669Z,-2.79
2015-11-14T01:55:15.075Z,-2.78
2015-11-14T01:55:27.481Z,-2.76
2015-11-14T01:55:39.874Z,-2.79
2015-11-14T01:55:52.265Z,-2.76
2015-11-14T01:56:04.624Z,-2.75
2015-11-14T01:56:16.983Z,-2.79
2015-11-14T01:56:29.343Z,-2.78
2015-11-14T01:56:41.706Z,-2.82
2015-11-14T01:56:54.081Z,-2.83
2015-11-14T01:57:06.440Z,-2.76
2015-11-14T01:57:18.800Z,-2.79
2015-11-14T01:57:31.190Z,-2.75
2015-11-14T01:57:43.552Z,-2.79
2015-11-14T01:57:55.942Z,-2.76
2015-11-14T01:58:08.286Z,-2.78
2015-11-14T01:58:20.489Z,-2.78
2015-11-14T01:58:32.708Z,-2.75
2015-11-14T01:58:44.912Z,-2.78
2015-11-14T01:58:57.303Z,-2.78
2015-11-14T01:59:09.678Z,-2.78
2015-11-14T01:59:22.053Z,-2.72
2015-11-14T01:59:34.412Z,-2.76
2015-11-14T01:59:46.087Z,-2.75
2015-11-14T01:59:58.478Z,-2.73
2015-11-14T02:00:10.868Z,-2.82
2015-11-14T02:00:22.540Z,-2.76
2015-11-14T02:00:34.931Z,-2.7
2015-11-14T02:00:47.340Z,-2.75
2015-11-14T02:00:59.699Z,-2.76
2015-11-14T02:01:12.059Z,-2.68
2015-11-14T02:01:24.418Z,-2.7
2015-11-14T02:01:36.778Z,-2.67
2015-11-14T02:01:48.421Z,-2.68
2015-11-14T02:02:00.781Z,-2.75
2015-11-14T02:02:13.140Z,-2.67
2015-11-14T02:02:25.499Z,-2.76
2015-11-14T02:02:37.702Z,-2.72
2015-11-14T02:02:50.080Z,-2.72
2015-11-14T02:03:02.440Z,-2.76
2015-11-14T02:03:14.799Z,-2.7
2015-11-14T02:03:27.159Z,-2.76
2015-11-14T02:03:39.518Z,-2.73
2015-11-14T02:03:51.895Z,-2.75
2015-11-14T02:04:04.254Z,-2.79
2015-11-14T02:04:16.629Z,-2.7
2015-11-14T02:04:28.848Z,-2.76
2015-11-14T02:04:41.254Z,-2.78
2015-11-14T02:04:53.648Z,-2.79
2015-11-14T02:05:06.039Z,-2.79
2015-11-14T02:05:18.429Z,-2.76
2015-11-14T02:05:30.820Z,-2.81
2015-11-14T02:05:43.054Z,-2.79
2015-11-14T02:05:55.462Z,-2.81
2015-11-14T02:06:07.869Z,-2.76
2015-11-14T02:06:20.228Z,-2.76
2015-11-14T02:06:32.587Z,-2.78
2015-11-14T02:06:44.947Z,-2.72
2015-11-14T02:06:57.326Z,-2.75
2015-11-14T02:07:09.701Z,-2.73
2015-11-14T02:07:22.060Z,-2.75
2015-11-14T02:07:34.435Z,-2.76
2015-11-14T02:07:46.795Z,-2.72
2015-11-14T02:07:59.157Z,-2.78
2015-11-14T02:08:11.532Z,-2.78
2015-11-14T02:08:23.891Z,-2.73
2015-11-14T02:08:36.251Z,-2.76
2015-11-14T02:08:48.612Z,-2.79
2015-11-14T02:09:01.003Z,-2.76
2015-11-14T02:09:13.378Z,-2.78
2015-11-14T02:09:25.753Z,-2.73
2015-11-14T02:09:38.128Z,-2.75
2015-11-14T02:09:50.506Z,-2.79
2015-11-14T02:10:02.881Z,-2.73
2015-11-14T02:10:15.256Z,-2.7
2015-11-14T02:10:27.631Z,-2.73
2015-11-14T02:10:40.006Z,-2.82
2015-11-14T02:10:52.462Z,-2.73
2015-11-14T02:11:04.868Z,-2.76
2015-11-14T02:11:17.274Z,-2.75
2015-11-14T02:11:28.946Z,-2.73
2015-11-14T02:11:41.306Z,-2.76
2015-11-14T02:11:53.667Z,-2.73
2015-11-14T02:12:06.026Z,-2.79
2015-11-14T02:12:18.386Z,-2.79
2015-11-14T02:12:30.745Z,-2.68
2015-11-14T02:12:43.104Z,-2.76
2015-11-14T02:12:55.466Z,-2.76
2015-11-14T02:13:07.841Z,-2.67
2015-11-14T02:13:20.200Z,-2.73
2015-11-14T02:13:32.575Z,-2.73
2015-11-14T02:13:44.216Z,-2.72
2015-11-14T02:13:56.595Z,-2.68
2015-11-14T02:14:08.954Z,-2.79
2015-11-14T02:14:20.595Z,-2.72
2015-11-14T02:14:32.985Z,-2.7
2015-11-14T02:14:45.360Z,-2.79
2015-11-14T02:14:57.737Z,-2.75
2015-11-14T02:15:10.112Z,-2.65
2015-11-14T02:15:22.503Z,-2.65
2015-11-14T02:15:34.894Z,-2.75
2015-11-14T02:15:47.284Z,-2.7
2015-11-14T02:15:59.694Z,-2.67
2015-11-14T02:16:12.100Z,-2.65
2015-11-14T02:16:24.522Z,-2.7
2015-11-14T02:16:36.912Z,-2.7
2015-11-14T02:16:49.272Z,-2.73
2015-11-14T02:17:01.634Z,-2.68
2015-11-14T02:17:13.993Z,-2.79
2015-11-14T02:17:26.353Z,-2.7
2015-11-14T02:17:38.712Z,-2.68
2015-11-14T02:17:51.087Z,-2.75
2015-11-14T02:18:03.433Z,-2.68
2015-11-14T02:18:15.808Z,-2.68
2015-11-14T02:18:28.167Z,-2.72
2015-11-14T02:18:40.527Z,-2.68
2015-11-14T02:18:52.902Z,-2.79
2015-11-14T02:19:05.265Z,-2.68
2015-11-14T02:19:17.624Z,-2.62
2015-11-14T02:19:29.999Z,-2.68
2015-11-14T02:19:42.390Z,-2.67
2015-11-14T02:19:54.765Z,-2.68
2015-11-14T02:20:07.142Z,-2.79
2015-11-14T02:20:19.501Z,-2.78
2015-11-14T02:20:31.908Z,-2.68
2015-11-14T02:20:44.298Z,-2.68
2015-11-14T02:20:56.689Z,-2.75
2015-11-14T02:21:09.067Z,-2.81
2015-11-14T02:21:21.426Z,-2.65
2015-11-14T02:21:33.786Z,-2.73
2015-11-14T02:21:46.161Z,-2.78
2015-11-14T02:21:58.504Z,-2.68
2015-11-14T02:22:10.866Z,-2.76
2015-11-14T02:22:23.225Z,-2.67
2015-11-14T02:22:35.585Z,-2.73
2015-11-14T02:22:47.944Z,-2.73
2015-11-14T02:23:00.303Z,-2.67
2015-11-14T02:23:12.698Z,-2.65
2015-11-14T02:23:25.073Z,-2.6
2015-11-14T02:23:37.448Z,-2.72
2015-11-14T02:23:49.823Z,-2.64
2015-11-14T02:24:02.214Z,-2.7
2015-11-14T02:24:14.607Z,-2.64
2015-11-14T02:24:26.998Z,-2.7
2015-11-14T02:24:39.404Z,-2.67
2015-11-14T02:24:51.795Z,-2.68
2015-11-14T02:25:04.154Z,-2.64
2015-11-14T02:25:16.515Z,-2.62
2015-11-14T02:25:28.875Z,-2.68
2015-11-14T02:25:41.250Z,-2.72
2015-11-14T02:25:53.625Z,-2.75
2015-11-14T02:26:05.969Z,-2.65
2015-11-14T02:26:18.347Z,-2.72
2015-11-14T02:26:30.690Z,-2.65
2015-11-14T02:26:43.065Z,-2.75
2015-11-14T02:26:55.425Z,-2.72
2015-11-14T02:27:07.784Z,-2.7
2015-11-14T02:27:20.146Z,-2.7
2015-11-14T02:27:32.506Z,-2.7
2015-11-14T02:27:44.865Z,-2.75
2015-11-14T02:27:57.240Z,-2.72
2015-11-14T02:28:09.615Z,-2.72
2015-11-14T02:28:21.993Z,-2.76
2015-11-14T02:28:34.353Z,-2.62
2015-11-14T02:28:46.743Z,-2.67
2015-11-14T02:28:59.149Z,-2.75
2015-11-14T02:29:11.524Z,-2.65
2015-11-14T02:29:23.933Z,-2.79
2015-11-14T02:29:36.323Z,-2.72
2015-11-14T02:29:48.730Z,-2.79
2015-11-14T02:30:01.089Z,-2.64
2015-11-14T02:30:13.448Z,-2.76
2015-11-14T02:30:25.811Z,-2.68
2015-11-14T02:30:38.170Z,-2.72
2015-11-14T02:30:50.561Z,-2.67
2015-11-14T02:31:02.920Z,-2.67
2015-11-14T02:31:15.279Z,-2.76
2015-11-14T02:31:27.641Z,-2.68
2015-11-14T02:31:40.016Z,-2.72
2015-11-14T02:31:52.375Z,-2.68
2015-11-14T02:32:04.735Z,-2.72
2015-11-14T02:32:17.094Z,-2.78
2015-11-14T02:32:29.473Z,-2.79
2015-11-14T02:32:41.832Z,-2.79
2015-11-14T02:32:54.207Z,-2.7
2015-11-14T02:33:06.582Z,-2.68
2015-11-14T02:33:18.957Z,-2.65
2015-11-14T02:33:31.335Z,-2.68
2015-11-14T02:33:43.742Z,-2.67
2015-11-14T02:33:56.132Z,-2.65
2015-11-14T02:34:08.523Z,-2.7
2015-11-14T02:34:20.913Z,-2.68
2015-11-14T02:34:33.165Z,-2.68
2015-11-14T02:34:45.572Z,-2.75
2015-11-14T02:34:57.978Z,-2.68
2015-11-14T02:35:10.384Z,-2.81
2015-11-14T02:35:22.759Z,-2.72
2015-11-14T02:35:35.122Z,-2.65
2015-11-14T02:35:47.481Z,-2.64
2015-11-14T02:35:59.825Z,-2.76
2015-11-14T02:36:12.184Z,-2.79
2015-11-14T02:36:24.559Z,-2.76
2015-11-14T02:36:36.952Z,-2.73
2015-11-14T02:36:49.311Z,-2.68
2015-11-14T02:37:01.670Z,-2.7
2015-11-14T02:37:14.030Z,-2.68
2015-11-14T02:37:26.405Z,-2.72
2015-11-14T02:37:38.752Z,-2.72
2015-11-14T02:37:51.111Z,-2.7
2015-11-14T02:38:03.470Z,-2.68
2015-11-14T02:38:15.845Z,-2.79
2015-11-14T02:38:28.220Z,-2.75
2015-11-14T02:38:40.599Z,-2.67
2015-11-14T02:38:52.974Z,-2.68
2015-11-14T02:39:05.365Z,-2.75
2015-11-14T02:39:17.037Z,-2.75
2015-11-14T02:39:29.271Z,-2.7
2015-11-14T02:39:41.648Z,-2.72